Time;durP1;ratioP1;P1;durP2;ratioP2;P2;SDS_P1;SDS_P2;PMS_P1;PMS_P2;Temp;Humidity;BMP_temperature;BMP_pressure;BME280_temperature;BME280_humidity;BME280_pressure;Samples;Min_cycle;Max_cycle;Signal;HPM_P1;HPM_P2
2022/01/14 00:02:19;;;;;;;40.88;20.38;;;-0.40;99.90;;;;;;4972403;28;20042;-82
2022/01/14 00:04:45;;;;;;;35.17;19.60;;;-0.50;99.90;;;;;;4973026;28;20070;-81
2022/01/14 00:07:14;;;;;;;36.25;18.92;;;-0.50;99.90;;;;;;4972176;28;20039;-80
2022/01/14 00:09:46;;;;;;;36.83;19.63;;;-0.60;99.90;;;;;;4972962;28;20249;-81
2022/01/14 00:12:17;;;;;;;40.28;19.20;;;-0.60;99.90;;;;;;4989739;28;20050;-82
2022/01/14 00:14:56;;;;;;;36.80;19.88;;;-0.50;99.90;;;;;;4973083;28;20054;-81
2022/01/14 00:17:25;;;;;;;37.22;19.20;;;-0.60;99.90;;;;;;4989996;28;20038;-81
2022/01/14 00:23:17;;;;;;;36.05;19.35;;;-0.50;99.90;;;;;;4988602;28;20035;-83
2022/01/14 00:34:02;;;;;;;38.42;20.65;;;-0.50;99.90;;;;;;4988326;28;20372;-84
2022/01/14 00:36:30;;;;;;;40.08;22.17;;;-0.50;99.90;;;;;;4990076;28;20063;-81
2022/01/14 00:38:56;;;;;;;;;;;-0.50;99.90;;;;;;4988519;28;20043;-82
2022/01/14 00:41:22;;;;;;;40.60;21.65;;;-0.50;99.90;;;;;;4972179;28;19906;-80
2022/01/14 00:43:55;;;;;;;45.42;22.88;;;-0.50;99.90;;;;;;4972747;28;20027;-81
2022/01/14 00:46:21;;;;;;;45.78;24.40;;;-0.50;99.90;;;;;;4972115;28;20399;-82
2022/01/14 00:48:47;;;;;;;44.10;23.52;;;-0.50;99.90;;;;;;4956775;28;20027;-81
2022/01/14 00:51:16;;;;;;;43.20;23.02;;;-0.50;99.90;;;;;;4972143;28;20027;-81
2022/01/14 00:53:42;;;;;;;43.35;24.67;;;-0.50;99.90;;;;;;4972753;28;20030;-81
2022/01/14 00:56:20;;;;;;;46.33;24.83;;;-0.60;99.90;;;;;;4988337;28;20035;-81
2022/01/14 01:01:48;;;;;;;42.83;23.45;;;-0.70;99.90;;;;;;4973422;28;20062;-82
2022/01/14 01:04:18;;;;;;;46.90;24.17;;;-0.60;99.90;;;;;;4950447;29;20027;-82
2022/01/14 01:06:46;;;;;;;47.20;23.88;;;-0.60;99.90;;;;;;4966263;29;20047;-81
2022/01/14 01:09:13;;;;;;;46.92;25.90;;;-0.60;99.90;;;;;;4965775;28;20035;-83
2022/01/14 01:12:08;;;;;;;43.55;24.67;;;-0.60;99.90;;;;;;4966874;29;20032;-82
2022/01/14 01:14:51;;;;;;;47.65;25.50;;;-0.50;99.90;;;;;;4967053;29;20077;-81
2022/01/14 01:17:18;;;;;;;44.90;24.85;;;-0.60;99.90;;;;;;4962157;29;20258;-82
2022/01/14 01:23:31;;;;;;;;;;;-0.60;99.90;;;;;;4968688;29;20062;-81
2022/01/14 01:26:12;;;;;;;43.67;24.33;;;-0.60;99.90;;;;;;4965342;29;20185;-82
2022/01/14 01:28:57;;;;;;;43.20;24.60;;;-0.60;99.90;;;;;;4965466;29;20023;-82
2022/01/14 01:31:35;;;;;;;45.08;24.80;;;-0.60;99.90;;;;;;4965775;29;20031;-82
2022/01/14 01:34:07;;;;;;;49.60;27.55;;;-0.60;99.90;;;;;;4949755;29;20090;-82
2022/01/14 01:36:33;;;;;;;45.35;25.63;;;-0.50;99.90;;;;;;4966795;29;20039;-82
2022/01/14 01:39:05;;;;;;;45.15;25.75;;;-0.60;99.90;;;;;;4965863;29;20117;-81
2022/01/14 01:41:34;;;;;;;45.15;25.92;;;-0.60;99.90;;;;;;4965279;28;20031;-81
2022/01/14 01:44:00;;;;;;;44.47;25.67;;;-0.60;99.90;;;;;;4964918;29;20062;-81
2022/01/14 01:46:28;;;;;;;51.28;26.05;;;-0.70;99.90;;;;;;4965087;29;20054;-83
2022/01/14 01:48:54;;;;;;;;;;;-0.70;99.90;;;;;;4949679;29;20027;-82
2022/01/14 01:51:24;;;;;;;44.42;24.42;;;-0.70;99.90;;;;;;4948783;29;19914;-82
2022/01/14 01:53:50;;;;;;;44.75;24.40;;;-0.70;99.90;;;;;;4949398;29;20317;-82
2022/01/14 01:56:17;;;;;;;43.28;23.30;;;-0.70;99.90;;;;;;4948687;29;20082;-81
2022/01/14 01:58:46;;;;;;;42.30;23.02;;;-0.80;99.90;;;;;;4965200;29;20027;-81
2022/01/14 02:01:14;;;;;;;48.38;23.88;;;-0.80;99.90;;;;;;4967911;28;20102;-82
2022/01/14 02:03:43;;;;;;;46.00;24.40;;;-0.80;99.90;;;;;;4966540;29;20238;-82
2022/01/14 02:06:44;;;;;;;44.05;24.67;;;-0.80;99.90;;;;;;4948503;29;20284;-81
2022/01/14 02:09:12;;;;;;;46.97;24.70;;;-0.80;99.90;;;;;;4947800;28;20062;-81
2022/01/14 02:11:39;;;;;;;47.03;25.33;;;-0.80;99.90;;;;;;4950478;28;20111;-82
2022/01/14 02:14:13;;;;;;;43.70;24.63;;;-0.90;99.90;;;;;;4949952;29;20027;-82
2022/01/14 02:17:14;;;;;;;43.10;23.88;;;-0.90;99.90;;;;;;4966181;29;20038;-81
2022/01/14 02:22:54;;;;;;;46.70;24.45;;;-0.90;99.90;;;;;;4948405;29;20221;-82
2022/01/14 02:25:29;;;;;;;43.63;24.20;;;-0.90;99.90;;;;;;4948215;29;20027;-82
2022/01/14 02:28:08;;;;;;;44.75;24.52;;;-0.90;99.90;;;;;;4965867;29;20039;-82
2022/01/14 02:30:38;;;;;;;48.40;24.90;;;-0.90;99.90;;;;;;4949008;29;20254;-82
2022/01/14 02:33:10;;;;;;;48.42;25.60;;;-0.90;99.90;;;;;;4948085;29;20096;-82
2022/01/14 02:35:37;;;;;;;43.95;23.80;;;-0.90;99.90;;;;;;4948700;29;20027;-81
2022/01/14 02:38:09;;;;;;;42.47;24.40;;;-0.90;99.90;;;;;;4964416;29;20055;-81
2022/01/14 02:40:35;;;;;;;45.15;24.20;;;-0.90;99.90;;;;;;4948493;29;20034;-82
2022/01/14 02:43:02;;;;;;;44.50;23.63;;;-1.00;99.90;;;;;;4965389;29;20094;-82
2022/01/14 02:45:33;;;;;;;42.38;24.27;;;-1.00;99.90;;;;;;4965752;29;20019;-80
2022/01/14 02:48:00;;;;;;;42.80;23.80;;;-1.00;99.90;;;;;;4948817;29;20054;-80
2022/01/14 02:50:37;;;;;;;45.58;24.63;;;-1.00;99.90;;;;;;4948392;29;20034;-82
2022/01/14 02:53:13;;;;;;;40.85;23.33;;;-1.00;99.90;;;;;;4966005;29;20071;-82
2022/01/14 02:55:43;;;;;;;39.95;23.60;;;-0.90;99.90;;;;;;4949019;29;20051;-82
2022/01/14 02:58:10;;;;;;;42.17;24.27;;;-0.90;99.90;;;;;;4964046;29;20039;-79
2022/01/14 03:00:36;;;;;;;42.40;23.35;;;-0.90;99.90;;;;;;4948138;29;20027;-80
2022/01/14 03:03:04;;;;;;;46.67;24.83;;;-0.90;99.90;;;;;;4948259;29;20065;-81
2022/01/14 03:05:31;;;;;;;44.53;23.65;;;-0.90;99.90;;;;;;4965186;29;20054;-80
2022/01/14 03:07:57;;;;;;;42.50;23.67;;;-1.00;99.90;;;;;;4948018;29;20037;-80
2022/01/14 03:10:23;;;;;;;43.70;23.92;;;-0.90;99.90;;;;;;4964931;29;20302;-81
2022/01/14 03:12:49;;;;;;;43.13;23.67;;;-1.00;99.90;;;;;;4965352;29;20122;-81
2022/01/14 03:16:11;;;;;;;40.40;23.23;;;-1.00;99.90;;;;;;4951036;29;20038;-81
2022/01/14 03:18:46;;;;;;;41.67;22.95;;;-1.00;99.90;;;;;;4948628;29;20114;-80
2022/01/14 03:21:17;;;;;;;44.75;24.75;;;-1.10;99.90;;;;;;4964179;28;20039;-80
2022/01/14 03:23:47;;;;;;;42.33;23.83;;;-1.00;99.90;;;;;;4948076;29;20034;-81
2022/01/14 03:26:19;;;;;;;40.95;23.35;;;-1.00;99.90;;;;;;4964569;29;20031;-80
2022/01/14 03:28:48;;;;;;;43.13;24.85;;;-0.90;99.90;;;;;;4947568;29;20329;-80
2022/01/14 03:31:20;;;;;;;44.88;23.27;;;-0.90;99.90;;;;;;4947584;29;20098;-79
2022/01/14 03:33:46;;;;;;;42.55;23.73;;;-0.80;99.90;;;;;;4964734;29;20027;-80
2022/01/14 03:36:12;;;;;;;44.50;24.75;;;-0.90;99.90;;;;;;4946998;29;20019;-79
2022/01/14 03:38:37;;;;;;;43.63;23.58;;;-0.80;99.90;;;;;;4947486;29;20115;-81
2022/01/14 03:41:04;;;;;;;40.72;24.02;;;-0.90;99.90;;;;;;4947809;29;20035;-81
2022/01/14 03:43:31;;;;;;;40.03;23.40;;;-0.90;99.90;;;;;;4964301;29;20027;-80
2022/01/14 03:46:07;;;;;;;42.13;23.73;;;-0.90;99.90;;;;;;4947682;29;20110;-82
2022/01/14 03:48:34;;;;;;;41.92;23.50;;;-0.90;99.90;;;;;;4947833;29;20090;-81
2022/01/14 03:58:40;;;;;;;41.13;22.85;;;-1.00;99.90;;;;;;4966058;29;20034;-82
2022/01/14 04:01:12;;;;;;;43.70;23.15;;;-1.00;99.90;;;;;;4947560;29;20030;-83
2022/01/14 04:03:41;;;;;;;39.38;22.70;;;-1.00;99.90;;;;;;4948032;29;20326;-82
2022/01/14 04:06:10;;;;;;;41.60;22.98;;;-1.00;99.90;;;;;;4947095;29;20032;-81
2022/01/14 04:08:37;;;;;;;45.15;23.70;;;-1.10;99.90;;;;;;4947507;29;20051;-82
2022/01/14 04:11:04;;;;;;;43.92;23.63;;;-1.10;99.90;;;;;;4947470;29;20094;-83
2022/01/14 04:13:49;;;;;;;44.45;23.33;;;-1.10;99.90;;;;;;4946754;29;20222;-82
2022/01/14 04:16:16;;;;;;;44.33;22.58;;;-1.10;99.90;;;;;;4946191;29;20047;-81
2022/01/14 04:18:42;;;;;;;41.97;22.70;;;-1.10;99.90;;;;;;4946787;29;20023;-83
2022/01/14 04:21:08;;;;;;;42.10;23.42;;;-1.10;99.90;;;;;;4946532;29;20019;-82
2022/01/14 04:23:34;;;;;;;37.72;22.80;;;-1.10;99.90;;;;;;4964149;29;20314;-82
2022/01/14 04:26:03;;;;;;;42.63;23.23;;;-1.20;99.90;;;;;;4930964;29;20063;-83
2022/01/14 04:28:33;;;;;;;40.40;22.73;;;-1.30;99.90;;;;;;4946321;29;20038;-82
2022/01/14 04:31:09;;;;;;;36.85;22.08;;;-1.30;99.90;;;;;;4946793;29;20417;-82
2022/01/14 04:33:36;;;;;;;40.85;23.90;;;-1.30;99.90;;;;;;4965844;28;20039;-83
2022/01/14 04:36:03;;;;;;;46.60;24.05;;;-1.30;99.90;;;;;;4966446;28;20024;-82
2022/01/14 04:38:30;;;;;;;44.38;22.70;;;-1.30;99.90;;;;;;4966713;29;20367;-83
2022/01/14 04:40:59;;;;;;;41.58;23.27;;;-1.40;99.90;;;;;;4966151;28;20094;-81
2022/01/14 04:43:25;;;;;;;42.22;23.88;;;-1.30;99.90;;;;;;4950465;29;20032;-82
2022/01/14 04:48:33;;;;;;;40.25;22.42;;;-1.20;99.90;;;;;;4966812;29;20094;-81
2022/01/14 04:51:03;;;;;;;41.05;22.73;;;-1.10;99.90;;;;;;4950063;29;20031;-81
2022/01/14 04:53:31;;;;;;;37.80;22.90;;;-1.10;99.90;;;;;;4933452;29;20035;-82
2022/01/14 04:55:57;;;;;;;42.28;22.58;;;-1.10;99.90;;;;;;4950166;29;20265;-82
2022/01/14 04:58:25;;;;;;;41.75;21.88;;;-1.10;99.90;;;;;;4966286;29;20027;-81
2022/01/14 05:00:51;;;;;;;40.70;22.15;;;-1.10;99.90;;;;;;4949846;29;20237;-82
2022/01/14 05:03:17;;;;;;;40.30;22.55;;;-1.20;99.90;;;;;;4949299;29;20039;-82
2022/01/14 05:05:46;;;;;;;37.42;21.52;;;-1.20;99.90;;;;;;4966983;29;20087;-83
2022/01/14 05:08:19;;;;;;;34.42;20.42;;;-1.20;99.90;;;;;;4949158;29;20055;-83
2022/01/14 05:13:40;;;;;;;39.92;21.98;;;-1.30;99.90;;;;;;4949703;29;20031;-81
2022/01/14 05:16:06;;;;;;;37.22;21.33;;;-1.30;99.90;;;;;;4966609;29;20035;-83
2022/01/14 05:18:31;;;;;;;39.28;21.35;;;-1.30;99.90;;;;;;4966551;28;20046;-82
2022/01/14 05:21:00;;;;;;;38.95;21.90;;;-1.30;99.90;;;;;;4953265;29;20031;-83
2022/01/14 05:23:26;;;;;;;41.00;22.00;;;-1.30;99.90;;;;;;4966573;29;20027;-82
2022/01/14 05:25:51;;;;;;;41.22;22.05;;;-1.20;99.90;;;;;;4950865;29;20027;-82
2022/01/14 05:28:17;;;;;;;38.33;21.33;;;-1.20;99.90;;;;;;4950602;29;20031;-83
2022/01/14 05:30:43;;;;;;;41.25;22.75;;;-1.20;99.90;;;;;;4950687;29;20031;-82
2022/01/14 05:33:09;;;;;;;36.13;20.33;;;-1.20;99.90;;;;;;4950273;29;20058;-83
2022/01/14 05:35:34;;;;;;;37.38;22.17;;;-1.30;99.90;;;;;;4949651;29;20031;-82
2022/01/14 05:38:00;;;;;;;40.88;21.02;;;-1.40;99.90;;;;;;4945702;29;20224;-80
2022/01/14 05:40:28;;;;;;;40.67;20.73;;;-1.40;99.90;;;;;;4929854;29;20210;-81
2022/01/14 05:42:54;;;;;;;40.50;22.33;;;-1.40;99.90;;;;;;4930555;29;20258;-80
2022/01/14 05:45:20;;;;;;;40.00;21.23;;;-1.40;99.90;;;;;;4944654;29;20028;-81
2022/01/14 05:47:45;;;;;;;39.53;21.48;;;-1.40;99.90;;;;;;4947002;29;20098;-81
2022/01/14 05:50:14;;;;;;;36.85;21.27;;;-1.40;99.90;;;;;;4946776;29;20035;-81
2022/01/14 05:52:39;;;;;;;;;;;-1.50;99.90;;;;;;4930409;29;20024;-80
2022/01/14 05:55:07;;;;;;;38.17;20.40;;;-1.50;99.90;;;;;;4961359;29;19950;-81
2022/01/14 05:57:38;;;;;;;42.57;21.40;;;-1.50;99.90;;;;;;4929116;29;20035;-80
2022/01/14 06:00:13;;;;;;;38.92;21.55;;;-1.60;99.90;;;;;;4945804;29;20035;-82
2022/01/14 06:02:49;;;;;;;40.63;22.55;;;-1.60;99.90;;;;;;4954319;29;20059;-81
2022/01/14 06:05:15;;;;;;;37.08;21.23;;;-1.60;99.90;;;;;;4963771;29;20328;-81
2022/01/14 06:07:41;;;;;;;40.10;22.77;;;-1.60;99.90;;;;;;4964288;29;20015;-78
2022/01/14 06:10:07;;;;;;;38.53;21.40;;;-1.60;99.90;;;;;;4964327;29;20087;-80
2022/01/14 06:12:33;;;;;;;42.08;21.30;;;-1.50;99.90;;;;;;4964821;29;20023;-80
2022/01/14 06:15:04;;;;;;;39.75;20.98;;;-1.50;99.90;;;;;;4955787;28;20043;-82
2022/01/14 06:17:30;;;;;;;36.90;21.58;;;-1.40;99.90;;;;;;4944305;29;20043;-81
2022/01/14 06:19:56;;;;;;;41.08;21.17;;;-1.50;99.90;;;;;;4945558;29;20082;-79
2022/01/14 06:22:22;;;;;;;39.72;21.80;;;-1.50;99.90;;;;;;4963725;29;20102;-80
2022/01/14 06:24:49;;;;;;;35.72;20.55;;;-1.50;99.90;;;;;;4964284;29;20058;-79
2022/01/14 06:27:17;;;;;;;39.45;21.38;;;-1.50;99.90;;;;;;4946454;29;20035;-80
2022/01/14 06:29:44;;;;;;;40.40;21.98;;;-1.40;99.90;;;;;;4964385;29;20029;-80
2022/01/14 06:32:13;;;;;;;39.97;21.42;;;-1.50;99.90;;;;;;4963619;29;20039;-80
2022/01/14 06:34:39;;;;;;;35.28;20.15;;;-1.50;99.90;;;;;;4963363;29;20085;-81
2022/01/14 06:37:04;;;;;;;36.25;20.23;;;-1.50;99.90;;;;;;4964338;28;20035;-80
2022/01/14 06:39:30;;;;;;;37.08;19.83;;;-1.50;99.90;;;;;;4950436;28;20270;-80
2022/01/14 06:41:56;;;;;;;36.33;21.02;;;-1.40;99.90;;;;;;4967132;28;20026;-79
2022/01/14 06:44:22;;;;;;;35.60;20.05;;;-1.20;99.90;;;;;;4966638;28;20026;-80
2022/01/14 06:46:47;;;;;;;35.47;20.45;;;-1.30;99.90;;;;;;4966355;28;20333;-81
2022/01/14 06:50:00;;;;;;;37.42;20.58;;;-1.30;99.90;;;;;;4950757;28;20030;-79
2022/01/14 06:52:29;;;;;;;37.20;20.10;;;-1.20;99.90;;;;;;4983659;28;20027;-79
2022/01/14 06:54:55;;;;;;;38.20;20.77;;;-1.20;99.90;;;;;;4950893;28;20070;-80
2022/01/14 06:57:23;;;;;;;37.55;20.08;;;-1.10;99.90;;;;;;4965223;28;20030;-79
2022/01/14 06:59:53;;;;;;;38.55;20.58;;;-0.90;99.90;;;;;;4966982;28;20031;-81
2022/01/14 07:02:22;;;;;;;34.92;19.67;;;-0.90;99.90;;;;;;4964265;28;20089;-79
2022/01/14 07:04:50;;;;;;;38.15;20.77;;;-1.10;99.90;;;;;;4983181;28;20078;-80
2022/01/14 07:07:16;;;;;;;37.22;20.20;;;-1.10;99.90;;;;;;4964792;29;20039;-80
2022/01/14 07:09:57;;;;;;;32.42;19.13;;;-1.20;99.90;;;;;;4968984;28;20065;-80
2022/01/14 07:12:43;;;;;;;34.00;19.45;;;-1.20;99.90;;;;;;4983504;28;20051;-79
2022/01/14 07:15:17;;;;;;;37.50;20.17;;;-1.30;99.90;;;;;;4982080;28;20229;-79
2022/01/14 07:17:45;;;;;;;36.47;20.05;;;-1.20;99.90;;;;;;4965761;28;20034;-79
2022/01/14 07:20:14;;;;;;;34.83;19.33;;;-1.30;99.90;;;;;;4966834;28;20047;-80
2022/01/14 07:22:43;;;;;;;38.13;20.65;;;-1.30;99.90;;;;;;4983417;28;20045;-80
2022/01/14 07:25:09;;;;;;;38.78;20.75;;;-1.30;99.90;;;;;;4966650;28;20062;-79
2022/01/14 07:27:35;;;;;;;38.72;20.52;;;-1.40;99.90;;;;;;4982807;28;20325;-79
2022/01/14 07:30:07;;;;;;;35.70;19.73;;;-1.40;99.90;;;;;;4967040;28;20027;-81
2022/01/14 07:32:34;;;;;;;36.90;19.65;;;-1.30;99.90;;;;;;4949834;28;20074;-81
2022/01/14 07:35:02;;;;;;;34.83;19.95;;;-1.20;99.90;;;;;;4950412;28;20065;-80
2022/01/14 07:37:33;;;;;;;37.08;20.55;;;-1.10;99.90;;;;;;4965758;28;20113;-81
2022/01/14 07:39:59;;;;;;;35.92;20.23;;;-1.10;99.90;;;;;;4984330;28;20019;-81
2022/01/14 07:42:25;;;;;;;36.10;20.67;;;-1.10;99.90;;;;;;4966166;28;20042;-80
2022/01/14 07:44:51;;;;;;;34.35;19.90;;;-1.00;99.90;;;;;;4967297;28;20081;-79
2022/01/14 07:47:17;;;;;;;34.28;19.30;;;-1.00;99.90;;;;;;4961717;28;20070;-79
2022/01/14 07:49:42;;;;;;;35.35;19.30;;;-0.80;99.90;;;;;;4966590;28;20027;-80
2022/01/14 07:52:08;;;;;;;31.75;18.60;;;-0.80;99.90;;;;;;4951434;28;20033;-80
2022/01/14 07:54:34;;;;;;;35.83;19.90;;;-0.70;99.90;;;;;;4984772;28;20078;-81
2022/01/14 07:57:01;;;;;;;31.67;19.85;;;-0.60;99.90;;;;;;4967375;28;20030;-81
2022/01/14 07:59:30;;;;;;;30.10;18.30;;;-0.60;99.90;;;;;;4983389;28;20353;-79
2022/01/14 08:01:58;;;;;;;34.22;18.67;;;-0.60;99.90;;;;;;4966236;28;20042;-81
2022/01/14 08:04:25;;;;;;;30.52;17.58;;;-0.40;99.90;;;;;;4967870;28;20027;-80
2022/01/14 08:06:53;;;;;;;32.58;18.48;;;-0.30;99.90;;;;;;4968047;28;20027;-80
2022/01/14 08:09:20;;;;;;;;;;;-0.30;99.90;;;;;;4970059;28;20102;-81
2022/01/14 08:11:46;;;;;;;30.98;17.55;;;-0.10;99.90;;;;;;4969645;28;20077;-81
2022/01/14 08:14:13;;;;;;;32.58;17.88;;;0.00;99.90;;;;;;4987033;28;20045;-79
2022/01/14 08:16:39;;;;;;;34.10;19.05;;;0.10;99.90;;;;;;4968825;28;20101;-80
2022/01/14 08:19:05;;;;;;;35.03;17.75;;;0.20;99.90;;;;;;4953345;28;20019;-79
2022/01/14 08:21:31;;;;;;;36.90;18.88;;;0.40;99.90;;;;;;4986840;28;20372;-79
2022/01/14 08:23:57;;;;;;;42.67;19.95;;;0.40;99.90;;;;;;4986905;28;20069;-79
2022/01/14 08:26:23;;;;;;;43.75;20.70;;;0.50;99.90;;;;;;4969214;28;20035;-80
2022/01/14 08:28:48;;;;;;;38.45;18.92;;;0.60;99.90;;;;;;4986926;28;20038;-81
2022/01/14 08:31:16;;;;;;;40.38;20.33;;;0.70;99.90;;;;;;4950480;29;20047;-80
2022/01/14 08:33:42;;;;;;;40.43;20.10;;;0.70;99.90;;;;;;4950090;29;20284;-80
2022/01/14 08:36:08;;;;;;;40.17;20.50;;;0.60;99.90;;;;;;4934234;29;20222;-81
2022/01/14 08:38:34;;;;;;;43.03;20.38;;;0.70;99.90;;;;;;4966624;28;20094;-80
2022/01/14 08:41:00;;;;;;;43.40;21.45;;;0.80;99.90;;;;;;4961155;28;20221;-80
2022/01/14 08:43:26;;;;;;;37.80;19.83;;;0.80;99.90;;;;;;4987491;28;20270;-80
2022/01/14 08:45:52;;;;;;;35.67;18.35;;;0.80;99.90;;;;;;4954390;28;20046;-80
2022/01/14 08:48:18;;;;;;;29.60;17.67;;;0.80;99.90;;;;;;4971649;28;20323;-80
2022/01/14 08:50:45;;;;;;;33.92;17.52;;;0.80;99.90;;;;;;4987898;28;20022;-80
2022/01/14 08:53:13;;;;;;;30.95;17.30;;;0.80;99.90;;;;;;4951958;29;20139;-80
2022/01/14 08:55:40;;;;;;;31.25;18.52;;;0.80;99.90;;;;;;4971632;28;20022;-81
2022/01/14 08:58:06;;;;;;;35.83;18.95;;;0.90;99.90;;;;;;4979569;28;20119;-81
2022/01/14 09:00:37;;;;;;;32.35;18.95;;;0.90;99.90;;;;;;4970758;28;20046;-81
2022/01/14 09:03:06;;;;;;;39.70;20.95;;;1.10;99.90;;;;;;4952025;29;20042;-80
2022/01/14 09:05:33;;;;;;;41.58;22.13;;;1.20;99.90;;;;;;4968121;28;20086;-80
2022/01/14 09:08:00;;;;;;;38.92;21.10;;;1.20;99.90;;;;;;4960042;28;20030;-79
2022/01/14 09:10:26;;;;;;;41.53;21.37;;;1.20;99.90;;;;;;4871900;29;20062;-82
2022/01/14 09:13:00;;;;;;;38.08;20.17;;;1.20;99.90;;;;;;4968225;29;20023;-81
2022/01/14 09:15:26;;;;;;;36.60;19.48;;;1.30;99.90;;;;;;4931181;29;20045;-79
2022/01/14 09:17:52;;;;;;;38.28;20.13;;;1.30;99.90;;;;;;4947483;29;20310;-80
2022/01/14 09:20:18;;;;;;;35.10;19.95;;;1.30;99.90;;;;;;4942137;29;20028;-81
2022/01/14 09:22:48;;;;;;;32.50;18.30;;;1.50;99.90;;;;;;4894351;29;21805;-79
2022/01/14 09:26:01;;;;;;;34.95;19.05;;;1.50;99.90;;;;;;4863178;29;20242;-82
2022/01/14 09:28:28;;;;;;;37.17;19.67;;;1.50;99.90;;;;;;4890302;29;20104;-80
2022/01/14 09:30:54;;;;;;;32.28;19.02;;;1.60;99.90;;;;;;4928527;29;20047;-81
2022/01/14 09:33:21;;;;;;;33.60;18.60;;;1.70;99.90;;;;;;4929206;29;20124;-81
2022/01/14 09:35:47;;;;;;;36.88;19.50;;;1.70;99.90;;;;;;4912588;29;20035;-82
2022/01/14 09:38:13;;;;;;;31.83;18.15;;;1.80;99.90;;;;;;4945185;29;20048;-79
2022/01/14 09:40:43;;;;;;;34.42;20.15;;;1.80;99.90;;;;;;4944899;29;20035;-79
2022/01/14 09:43:12;;;;;;;38.17;20.45;;;1.80;99.90;;;;;;4929242;29;20316;-83
2022/01/14 09:45:38;;;;;;;34.88;19.75;;;1.80;99.90;;;;;;4944478;29;20032;-80
2022/01/14 09:48:04;;;;;;;31.52;18.33;;;1.90;99.90;;;;;;4929325;29;20038;-81
2022/01/14 09:50:31;;;;;;;31.60;19.08;;;2.00;99.90;;;;;;4933241;29;20107;-80
2022/01/14 09:52:57;;;;;;;35.15;19.65;;;1.90;99.90;;;;;;4947310;28;20177;-80
2022/01/14 09:55:24;;;;;;;33.97;19.85;;;2.00;99.90;;;;;;4929775;29;20314;-81
2022/01/14 09:57:54;;;;;;;32.72;18.40;;;2.00;99.90;;;;;;4913299;29;20059;-81
2022/01/14 10:00:21;;;;;;;36.75;18.98;;;2.20;99.90;;;;;;4929165;29;20333;-83
2022/01/14 10:02:49;;;;;;;30.05;17.70;;;2.20;99.90;;;;;;4913647;29;20027;-83
2022/01/14 10:05:37;;;;;;;33.90;18.77;;;2.20;99.90;;;;;;4959933;29;20337;-82
2022/01/14 10:08:18;;;;;;;33.53;18.73;;;2.10;99.90;;;;;;4964357;29;20031;-82
2022/01/14 10:10:57;;;;;;;33.20;18.42;;;2.10;99.90;;;;;;4947851;29;20466;-81
2022/01/14 10:13:37;;;;;;;30.23;18.38;;;2.30;99.90;;;;;;4964580;29;20317;-81
2022/01/14 10:16:08;;;;;;;31.92;18.45;;;2.50;99.90;;;;;;4964668;28;20089;-80
2022/01/14 10:18:36;;;;;;;29.60;17.73;;;2.60;99.90;;;;;;4932034;29;20043;-81
2022/01/14 10:21:07;;;;;;;31.90;17.50;;;2.70;99.90;;;;;;4932481;29;20038;-80
2022/01/14 10:23:49;;;;;;;32.35;17.75;;;2.70;99.90;;;;;;4963801;29;20027;-81
2022/01/14 10:26:16;;;;;;;35.90;18.95;;;2.70;99.90;;;;;;4947600;29;20034;-81
2022/01/14 10:28:45;;;;;;;35.35;18.98;;;2.70;99.90;;;;;;4963494;29;20266;-82
2022/01/14 10:31:13;;;;;;;31.85;17.08;;;2.80;99.90;;;;;;4963690;28;20058;-80
2022/01/14 10:33:38;;;;;;;34.38;18.67;;;3.00;99.90;;;;;;4943715;29;20040;-81
2022/01/14 10:36:05;;;;;;;31.63;17.75;;;3.10;99.90;;;;;;4965082;28;20049;-81
2022/01/14 10:38:52;;;;;;;32.63;17.35;;;3.20;99.90;;;;;;4963344;29;20371;-83
2022/01/14 10:41:19;;;;;;;27.48;16.23;;;3.30;99.90;;;;;;4935503;29;20027;-81
2022/01/14 10:43:45;;;;;;;31.58;18.17;;;3.40;99.90;;;;;;4963496;29;20019;-82
2022/01/14 10:46:11;;;;;;;28.08;16.80;;;3.60;99.90;;;;;;4946838;29;20035;-81
2022/01/14 10:48:55;;;;;;;27.65;17.00;;;3.80;99.90;;;;;;4912310;29;20059;-81
2022/01/14 10:51:20;;;;;;;27.92;16.63;;;4.20;99.90;;;;;;4949086;29;20088;-78
2022/01/14 10:53:53;;;;;;;32.35;17.92;;;4.80;99.90;;;;;;4946204;29;20204;-81
2022/01/14 10:56:21;;;;;;;30.30;17.25;;;5.30;99.90;;;;;;4964467;29;20378;-80
2022/01/14 10:58:51;;;;;;;29.25;15.90;;;5.90;99.90;;;;;;4962759;28;20043;-79
2022/01/14 11:01:21;;;;;;;22.98;15.40;;;6.40;99.90;;;;;;4963898;28;20039;-80
2022/01/14 11:03:47;;;;;;;27.20;16.45;;;6.80;99.90;;;;;;4962796;29;20027;-78
2022/01/14 11:06:19;;;;;;;25.50;15.25;;;7.40;99.90;;;;;;4947267;29;20328;-79
2022/01/14 11:08:46;;;;;;;32.33;18.05;;;8.00;99.90;;;;;;4963781;29;20258;-79
2022/01/14 11:11:16;;;;;;;24.75;14.85;;;8.30;99.90;;;;;;4946860;29;20337;-79
2022/01/14 11:13:45;;;;;;;26.15;15.90;;;8.70;99.90;;;;;;4946791;29;20039;-79
2022/01/14 11:16:11;;;;;;;26.58;15.48;;;8.70;99.90;;;;;;4945466;29;20046;-81
2022/01/14 11:18:38;;;;;;;21.08;13.98;;;9.40;99.90;;;;;;4958054;29;20031;-80
2022/01/14 11:23:49;;;;;;;22.85;15.57;;;10.00;99.90;;;;;;4962287;29;20051;-79
2022/01/14 11:26:19;;;;;;;20.00;14.20;;;10.60;99.50;;;;;;4946701;29;20328;-81
2022/01/14 11:28:46;;;;;;;19.13;13.70;;;11.20;98.20;;;;;;4962712;29;20090;-78
2022/01/14 11:31:35;;;;;;;20.52;15.52;;;11.60;96.90;;;;;;4963207;28;20067;-81
2022/01/14 11:34:03;;;;;;;21.77;14.55;;;11.70;96.70;;;;;;4964498;29;20035;-78
2022/01/14 11:40:24;;;;;;;28.70;15.85;;;12.20;95.50;;;;;;4963533;29;20049;-79
2022/01/14 11:42:59;;;;;;;22.88;15.90;;;12.00;96.00;;;;;;4946537;29;20106;-80
2022/01/14 11:45:49;;;;;;;25.23;16.13;;;12.40;94.90;;;;;;4917695;29;20087;-79
2022/01/14 11:48:32;;;;;;;26.88;17.33;;;12.80;94.40;;;;;;4919456;29;20061;-80
2022/01/14 11:51:07;;;;;;;24.98;15.68;;;13.20;93.70;;;;;;4954267;28;20291;-80
2022/01/14 11:53:53;;;;;;;24.90;15.35;;;13.40;93.70;;;;;;4928447;29;20115;-80
2022/01/14 11:56:34;;;;;;;19.70;13.52;;;13.70;93.00;;;;;;4944915;29;20086;-81
2022/01/14 11:59:19;;;;;;;26.63;15.05;;;14.30;92.30;;;;;;4944793;29;20045;-79
2022/01/14 12:01:47;;;;;;;21.70;14.30;;;14.30;91.70;;;;;;4962188;29;20043;-79
2022/01/14 12:04:13;;;;;;;20.02;14.25;;;14.00;91.70;;;;;;4961495;28;20115;-79
2022/01/14 12:06:51;;;;;;;17.60;13.40;;;14.10;91.80;;;;;;4963077;29;20047;-79
2022/01/14 12:09:17;;;;;;;20.65;14.25;;;14.90;90.90;;;;;;4962364;29;20033;-80
2022/01/14 12:11:44;;;;;;;19.30;13.77;;;15.10;90.30;;;;;;4961810;29;20051;-78
2022/01/14 12:14:12;;;;;;;21.40;13.60;;;14.50;90.80;;;;;;4931031;29;20217;-79
2022/01/14 12:17:00;;;;;;;21.25;13.65;;;15.20;90.30;;;;;;4939278;29;20053;-80
2022/01/14 12:19:50;;;;;;;22.35;14.30;;;15.60;89.10;;;;;;4963780;28;20027;-79
2022/01/14 12:22:30;;;;;;;18.17;12.52;;;16.00;88.00;;;;;;4959352;29;20094;-80
2022/01/14 12:24:58;;;;;;;21.27;13.38;;;16.20;87.20;;;;;;4930954;29;20063;-79
2022/01/14 12:27:25;;;;;;;17.42;12.93;;;16.60;86.20;;;;;;4946578;29;20015;-79
2022/01/14 12:30:02;;;;;;;17.23;12.80;;;16.50;86.00;;;;;;4962548;29;20326;-78
2022/01/14 12:32:33;;;;;;;18.67;13.15;;;17.10;85.20;;;;;;4960869;28;20039;-81
2022/01/14 12:35:06;;;;;;;17.10;13.10;;;17.20;84.00;;;;;;4959432;29;20027;-80
2022/01/14 12:37:46;;;;;;;20.55;12.93;;;17.50;82.30;;;;;;4960505;29;20284;-80
2022/01/14 12:40:26;;;;;;;18.05;12.68;;;18.10;82.20;;;;;;4946717;29;20031;-81
2022/01/14 12:50:35;;;;;;;17.30;12.68;;;16.70;81.90;;;;;;4963599;29;20037;-80
2022/01/14 12:53:01;;;;;;;20.05;13.77;;;16.60;82.80;;;;;;4945553;29;20063;-81
2022/01/14 12:55:36;;;;;;;18.63;13.35;;;17.30;82.10;;;;;;4966327;28;20229;-83
2022/01/14 12:58:12;;;;;;;21.02;13.15;;;17.30;81.20;;;;;;4948819;29;20062;-80
2022/01/14 13:00:42;;;;;;;19.63;13.93;;;16.50;82.70;;;;;;4963974;29;20230;-80
2022/01/14 13:06:57;;;;;;;26.77;14.93;;;16.30;83.30;;;;;;4965817;29;20332;-82
2022/01/14 13:09:30;;;;;;;22.33;14.88;;;16.30;83.30;;;;;;4952515;29;20285;-80
2022/01/14 13:12:06;;;;;;;20.08;14.93;;;15.60;84.00;;;;;;4947764;29;20035;-81
2022/01/14 13:14:48;;;;;;;21.73;15.07;;;14.90;85.40;;;;;;4947309;29;20094;-81
2022/01/14 13:17:26;;;;;;;18.67;14.15;;;15.20;85.50;;;;;;4960231;29;20342;-81
2022/01/14 13:20:07;;;;;;;24.65;16.08;;;15.30;86.60;;;;;;4929761;29;20062;-80
2022/01/14 13:22:37;;;;;;;21.40;14.98;;;14.30;87.00;;;;;;4945675;29;20101;-81
2022/01/14 13:25:23;;;;;;;21.30;14.98;;;14.00;89.10;;;;;;4956399;28;20034;-80
2022/01/14 13:27:58;;;;;;;23.35;15.82;;;13.90;88.80;;;;;;4965259;29;20070;-79
2022/01/14 13:30:39;;;;;;;24.05;15.90;;;13.30;89.50;;;;;;4947655;29;20274;-80
2022/01/14 13:33:18;;;;;;;22.88;15.68;;;13.20;90.40;;;;;;4955176;28;20102;-80
2022/01/14 13:35:46;;;;;;;;;;;13.40;89.90;;;;;;4942851;29;20384;-80
2022/01/14 13:38:15;;;;;;;23.42;15.27;;;13.30;90.00;;;;;;4966899;29;19953;-81
2022/01/14 13:40:57;;;;;;;22.25;15.40;;;13.50;91.30;;;;;;4962608;29;20191;-77